createdAt,value
2023-07-24T00:00:16.877Z,93759.13
2023-07-24T00:02:43.606Z,93752.53
2023-07-24T00:05:11.432Z,93743.59
2023-07-24T00:07:38.293Z,93737.41
2023-07-24T00:10:05.920Z,93736.66
2023-07-24T00:12:32.888Z,93723.50
2023-07-24T00:14:59.752Z,93723.13
2023-07-24T00:17:26.639Z,93722.34
2023-07-24T00:19:53.495Z,93712.59
2023-07-24T00:22:20.194Z,93701.72
2023-07-24T00:24:46.963Z,93704.81
2023-07-24T00:27:15.030Z,93707.13
2023-07-24T00:29:41.824Z,93697.44
2023-07-24T00:32:08.981Z,93705.59
2023-07-24T00:34:36.016Z,93714.13
2023-07-24T00:37:03.079Z,93706.34
2023-07-24T00:39:30.837Z,93701.72
2023-07-24T00:41:57.943Z,93697.06
2023-07-24T00:44:24.689Z,93699.41
2023-07-24T00:46:51.713Z,93701.34
2023-07-24T00:49:21.375Z,93709.91
2023-07-24T00:51:48.705Z,93701.06
2023-07-24T00:54:18.029Z,93695.69
2023-07-24T00:56:46.885Z,93700.81
2023-07-24T00:59:16.083Z,93690.38
2023-07-24T01:01:43.916Z,93700.91
2023-07-24T01:04:10.733Z,93698.19
2023-07-24T01:06:37.516Z,93695.13
2023-07-24T01:09:04.277Z,93702.16
2023-07-24T01:11:37.319Z,93700.63
2023-07-24T01:14:17.833Z,93693.25
2023-07-24T01:16:46.334Z,93697.91
2023-07-24T01:19:43.821Z,93692.09
2023-07-24T01:22:17.123Z,93689.00
2023-07-24T01:25:02.251Z,93674.31
2023-07-24T01:27:29.008Z,93690.97
2023-07-24T01:29:55.846Z,93680.88
2023-07-24T01:32:22.947Z,93661.13
2023-07-24T01:34:50.266Z,93670.03
2023-07-24T01:37:18.066Z,93671.97
2023-07-24T01:39:46.271Z,93660.34
2023-07-24T01:42:13.992Z,93652.22
2023-07-24T01:44:40.893Z,93649.91
2023-07-24T01:47:07.915Z,93642.91
2023-07-24T01:49:34.765Z,93634.00
2023-07-24T01:52:01.503Z,93644.84
2023-07-24T01:54:28.211Z,93652.59
2023-07-24T01:56:54.945Z,93639.81
2023-07-24T01:59:21.758Z,93635.50
2023-07-24T02:01:48.622Z,93635.91
2023-07-24T02:04:15.695Z,93652.19
2023-07-24T02:06:42.518Z,93666.53
2023-07-24T02:09:09.257Z,93668.84
2023-07-24T02:11:36.028Z,93662.25
2023-07-24T02:14:02.802Z,93666.56
2023-07-24T02:16:29.893Z,93666.56
2023-07-24T02:18:56.916Z,93673.53
2023-07-24T02:21:23.632Z,93668.09
2023-07-24T02:23:50.318Z,93670.44
2023-07-24T02:26:17.063Z,93659.16
2023-07-24T02:28:43.775Z,93668.47
2023-07-24T02:31:10.635Z,93644.81
2023-07-24T02:33:37.363Z,93661.47
2023-07-24T02:36:04.352Z,93651.00
2023-07-24T02:38:31.174Z,93652.97
2023-07-24T02:40:58.430Z,93660.75
2023-07-24T02:43:25.286Z,93668.50
2023-07-24T02:45:52.117Z,93667.75
2023-07-24T02:48:18.824Z,93664.22
2023-07-24T02:50:45.524Z,93670.75
2023-07-24T02:53:12.708Z,93665.31
2023-07-24T02:55:43.535Z,93657.19
2023-07-24T02:58:10.571Z,93637.44
2023-07-24T03:00:37.266Z,93635.13
2023-07-24T03:03:04.657Z,93630.88
2023-07-24T03:05:32.147Z,93631.25
2023-07-24T03:07:58.874Z,93614.22
2023-07-24T03:10:25.560Z,93627.00
2023-07-24T03:12:52.935Z,93632.06
2023-07-24T03:15:20.422Z,93624.72
2023-07-24T03:17:47.195Z,93625.53
2023-07-24T03:20:18.946Z,93636.34
2023-07-24T03:22:46.103Z,93626.28
2023-07-24T03:25:13.142Z,93616.97
2023-07-24T03:27:40.036Z,93606.13
2023-07-24T03:30:07.552Z,93596.47
2023-07-24T03:32:34.266Z,93597.63
2023-07-24T03:35:01.069Z,93594.53
2023-07-24T03:37:27.924Z,93607.28
2023-07-24T03:39:54.846Z,93606.47
2023-07-24T03:42:29.498Z,93601.31
2023-07-24T03:44:56.737Z,93595.78
2023-07-24T03:47:24.189Z,93593.78
2023-07-24T03:49:51.519Z,93602.28
2023-07-24T03:52:18.430Z,93605.06
2023-07-24T03:54:46.225Z,93607.03
2023-07-24T03:57:13.080Z,93602.81
2023-07-24T03:59:39.854Z,93607.13
2023-07-24T04:02:08.532Z,93610.63
2023-07-24T04:04:38.023Z,93602.91
2023-07-24T04:07:05.305Z,93607.59
2023-07-24T04:09:32.052Z,93599.06
2023-07-24T04:11:58.867Z,93592.53
2023-07-24T04:14:25.627Z,93590.59
2023-07-24T04:16:52.449Z,93582.06
2023-07-24T04:19:19.215Z,93590.19
2023-07-24T04:21:45.921Z,93581.31
2023-07-24T04:24:12.625Z,93565.03
2023-07-24T04:26:41.023Z,93564.63
2023-07-24T04:29:08.346Z,93577.38
2023-07-24T04:31:35.168Z,93583.50
2023-07-24T04:34:01.868Z,93575.31
2023-07-24T04:36:28.726Z,93568.28
2023-07-24T04:38:55.822Z,93566.66
2023-07-24T04:41:22.546Z,93552.75
2023-07-24T04:43:49.253Z,93550.13
2023-07-24T04:46:16.146Z,93543.66
2023-07-24T04:48:42.858Z,93549.88
2023-07-24T04:51:09.612Z,93539.47
2023-07-24T04:53:36.281Z,93539.53
2023-07-24T04:56:03.072Z,93531.84
2023-07-24T04:58:29.758Z,93525.66
2023-07-24T05:00:56.458Z,93539.56
2023-07-24T05:03:23.246Z,93530.66
2023-07-24T05:05:55.047Z,93543.03
2023-07-24T05:08:21.744Z,93549.63
2023-07-24T05:10:48.515Z,93539.94
2023-07-24T05:13:15.362Z,93546.91
2023-07-24T05:15:42.151Z,93550.38
2023-07-24T05:18:08.843Z,93541.44
2023-07-24T05:20:35.555Z,93535.25
2023-07-24T05:23:02.274Z,93532.94
2023-07-24T05:25:29.091Z,93530.22
2023-07-24T05:27:55.839Z,93527.94
2023-07-24T05:30:22.590Z,93534.88
2023-07-24T05:32:49.447Z,93532.16
2023-07-24T05:35:16.333Z,93542.56
2023-07-24T05:37:43.067Z,93533.63
2023-07-24T05:40:11.006Z,93534.34
2023-07-24T05:42:42.640Z,93522.69
2023-07-24T05:45:09.800Z,93506.84
2023-07-24T05:47:36.556Z,93516.13
2023-07-24T05:50:03.545Z,93511.84
2023-07-24T05:52:30.229Z,93524.56
2023-07-24T05:54:56.953Z,93539.25
2023-07-24T05:57:23.670Z,93552.03
2023-07-24T05:59:51.913Z,93556.69
2023-07-24T06:02:18.886Z,93554.41
2023-07-24T06:04:45.711Z,93548.97
2023-07-24T06:07:12.489Z,93553.19
2023-07-24T06:09:39.227Z,93556.69
2023-07-24T06:12:06.176Z,93573.72
2023-07-24T06:14:32.863Z,93574.84
2023-07-24T06:16:59.574Z,93580.97
2023-07-24T06:19:26.352Z,93596.78
2023-07-24T06:21:53.085Z,93594.78
2023-07-24T06:24:19.831Z,93597.41
2023-07-24T06:26:46.568Z,93599.19
2023-07-24T06:29:13.365Z,93606.81
2023-07-24T06:31:40.193Z,93589.63
2023-07-24T06:34:07.017Z,93589.50
2023-07-24T06:36:33.807Z,93571.16
2023-07-24T06:39:00.518Z,93570.31
2023-07-24T06:41:27.312Z,93566.78
2023-07-24T06:43:54.265Z,93562.06
2023-07-24T06:46:21.074Z,93563.28
2023-07-24T06:48:47.787Z,93566.06
2023-07-24T06:51:14.523Z,93555.28
2023-07-24T06:53:41.204Z,93549.53
2023-07-24T06:56:07.938Z,93539.13
2023-07-24T06:58:34.728Z,93544.25
2023-07-24T07:01:01.420Z,93538.84
2023-07-24T07:03:28.218Z,93526.78
2023-07-24T07:06:00.490Z,93520.53
2023-07-24T07:08:27.418Z,93508.06
2023-07-24T07:10:58.259Z,93530.56
2023-07-24T07:13:24.978Z,93534.09
2023-07-24T07:15:51.792Z,93549.19
2023-07-24T07:18:18.811Z,93562.34
2023-07-24T07:20:50.042Z,93578.25
2023-07-24T07:23:16.946Z,93579.06
2023-07-24T07:25:46.230Z,93567.03
2023-07-24T07:28:17.406Z,93565.78
2023-07-24T07:30:46.218Z,93577.00
2023-07-24T07:33:13.145Z,93573.44
2023-07-24T07:35:39.841Z,93565.72
2023-07-24T07:38:06.553Z,93575.03
2023-07-24T07:40:33.280Z,93585.59
2023-07-24T07:43:00.082Z,93586.34
2023-07-24T07:45:26.832Z,93586.31
2023-07-24T07:47:54.587Z,93580.81
2023-07-24T07:50:21.520Z,93585.00
2023-07-24T07:52:57.452Z,93579.78
2023-07-24T07:55:24.216Z,93569.97
2023-07-24T07:57:50.890Z,93578.69
2023-07-24T08:00:17.894Z,93569.00
2023-07-24T08:02:44.679Z,93578.69
2023-07-24T08:05:20.645Z,93587.94
2023-07-24T08:07:48.250Z,93580.25
2023-07-24T08:10:16.829Z,93574.63
2023-07-24T08:12:44.939Z,93579.84
2023-07-24T08:15:12.139Z,93582.63
2023-07-24T08:17:39.126Z,93580.19
2023-07-24T08:20:06.594Z,93576.06
2023-07-24T08:22:33.465Z,93573.63
2023-07-24T08:25:00.330Z,93584.34
2023-07-24T08:27:27.237Z,93568.53
2023-07-24T08:29:54.201Z,93573.13
2023-07-24T08:32:21.523Z,93568.66
2023-07-24T08:34:48.501Z,93575.47
2023-07-24T08:37:15.211Z,93560.00
2023-07-24T08:39:42.769Z,93557.22
2023-07-24T08:42:13.799Z,93548.66
2023-07-24T08:44:41.052Z,93550.31
2023-07-24T08:47:11.550Z,93538.66
2023-07-24T08:49:41.426Z,93542.53
2023-07-24T08:52:12.382Z,93549.53
2023-07-24T08:54:41.423Z,93540.28
2023-07-24T08:57:08.726Z,93542.34
2023-07-24T09:02:03.148Z,93545.63
2023-07-24T09:04:30.394Z,93538.53
2023-07-24T09:06:59.215Z,93523.47
2023-07-24T09:09:32.431Z,93530.34
2023-07-24T09:12:00.886Z,93533.59
2023-07-24T09:14:32.683Z,93512.31
2023-07-24T09:17:05.767Z,93514.78
2023-07-24T09:19:32.965Z,93514.69
2023-07-24T09:22:10.171Z,93511.44
2023-07-24T09:24:37.542Z,93497.13
2023-07-24T09:27:07.969Z,93497.75
2023-07-24T09:29:36.256Z,93501.41
2023-07-24T09:32:03.184Z,93505.28
2023-07-24T09:34:30.022Z,93503.91
2023-07-24T09:36:56.959Z,93516.50
2023-07-24T09:39:29.970Z,93516.34
2023-07-24T09:42:07.445Z,93522.78
2023-07-24T09:44:34.261Z,93522.72
2023-07-24T09:47:24.653Z,93514.66
2023-07-24T09:49:49.343Z,93509.41
2023-07-24T09:52:19.853Z,93524.75
2023-07-24T09:54:57.476Z,93518.34
2023-07-24T09:57:26.209Z,93528.16
2023-07-24T09:59:54.701Z,93533.69
2023-07-24T10:02:22.671Z,93531.53
2023-07-24T10:04:50.897Z,93551.84
2023-07-24T10:07:22.766Z,93565.31
2023-07-24T10:09:53.909Z,93568.56
2023-07-24T10:12:21.485Z,93571.00
2023-07-24T10:14:49.592Z,93581.72
2023-07-24T10:17:35.929Z,93570.59
2023-07-24T10:20:10.634Z,93587.53
2023-07-24T10:22:42.574Z,93591.31
2023-07-24T10:25:11.133Z,93593.28
2023-07-24T10:27:45.038Z,93578.41
2023-07-24T10:30:27.456Z,93581.28
2023-07-24T10:33:21.922Z,93584.91
2023-07-24T10:35:55.923Z,93582.47
2023-07-24T10:38:39.917Z,93565.59
2023-07-24T10:41:08.879Z,93564.16
2023-07-24T10:43:44.536Z,93562.19
2023-07-24T10:46:13.985Z,93568.47
2023-07-24T10:48:52.774Z,93576.03
2023-07-24T10:51:19.707Z,93559.44
2023-07-24T10:53:49.010Z,93555.25
2023-07-24T10:56:17.221Z,93545.53
2023-07-24T10:58:44.385Z,93547.06
2023-07-24T11:01:12.249Z,93543.59
2023-07-24T11:03:43.225Z,93563.84
2023-07-24T11:06:20.713Z,93577.13
2023-07-24T11:08:59.283Z,93595.03
2023-07-24T11:11:34.439Z,93609.47
2023-07-24T11:14:03.007Z,93634.03
2023-07-24T11:16:32.626Z,93642.28
2023-07-24T11:18:59.473Z,93643.13
2023-07-24T11:21:26.550Z,93644.31
2023-07-24T11:23:55.497Z,93649.34
2023-07-24T11:26:27.457Z,93643.13
2023-07-24T11:28:54.681Z,93650.13
2023-07-24T11:31:22.196Z,93659.06
2023-07-24T11:33:51.528Z,93663.34
2023-07-24T11:36:18.830Z,93667.22
2023-07-24T11:38:49.807Z,93646.28
2023-07-24T11:41:18.247Z,93622.28
2023-07-24T11:43:49.332Z,93644.78
2023-07-24T11:46:27.209Z,93652.53
2023-07-24T11:48:56.987Z,93642.06
2023-07-24T11:51:25.783Z,93619.56
2023-07-24T11:53:52.634Z,93598.16
2023-07-24T11:56:20.616Z,93597.69
2023-07-24T11:58:47.428Z,93565.84
2023-07-24T12:01:14.851Z,93556.75
2023-07-24T12:03:42.585Z,93550.31
2023-07-24T12:06:18.743Z,93543.88
2023-07-24T12:08:45.550Z,93539.56
2023-07-24T12:11:21.917Z,93525.25
2023-07-24T12:13:51.215Z,93509.63
2023-07-24T12:16:19.046Z,93521.28
2023-07-24T12:18:45.866Z,93492.88
2023-07-24T12:21:12.566Z,93518.16
2023-07-24T12:23:39.266Z,93496.75
2023-07-24T12:26:06.145Z,93493.31
2023-07-24T12:28:33.136Z,93496.72
2023-07-24T12:30:59.882Z,93500.88
2023-07-24T12:33:26.582Z,93494.25
2023-07-24T12:35:54.043Z,93501.38
2023-07-24T12:38:20.863Z,93507.19
2023-07-24T12:40:47.643Z,93505.50
2023-07-24T12:43:16.637Z,93500.91
2023-07-24T12:45:43.528Z,93499.94
2023-07-24T12:48:11.028Z,93513.53
2023-07-24T12:50:37.899Z,93514.63
2023-07-24T12:53:05.443Z,93518.44
2023-07-24T12:55:35.864Z,93510.22
2023-07-24T12:58:04.315Z,93502.94
2023-07-24T13:00:31.346Z,93498.66
2023-07-24T13:02:58.255Z,93502.94
2023-07-24T13:05:25.078Z,93507.41
2023-07-24T13:07:51.720Z,93508.72
2023-07-24T13:10:18.491Z,93503.28
2023-07-24T13:12:45.697Z,93513.75
2023-07-24T13:15:12.423Z,93504.13
2023-07-24T13:17:39.128Z,93508.63
2023-07-24T13:20:06.616Z,93485.16
2023-07-24T13:22:33.315Z,93487.47
2023-07-24T13:25:00.002Z,93484.28
2023-07-24T13:27:26.728Z,93474.06
2023-07-24T13:29:53.379Z,93468.47
2023-07-24T13:32:20.183Z,93465.13
2023-07-24T13:34:48.554Z,93454.31
2023-07-24T13:37:15.296Z,93448.59
2023-07-24T13:39:42.015Z,93443.59
2023-07-24T13:42:08.698Z,93452.28
2023-07-24T13:44:35.419Z,93449.88
2023-07-24T13:47:02.162Z,93442.59
2023-07-24T13:49:29.073Z,93451.34
2023-07-24T13:51:55.790Z,93440.03
2023-07-24T13:54:22.467Z,93437.31
2023-07-24T13:56:49.222Z,93438.41
2023-07-24T13:59:16.071Z,93434.59
2023-07-24T14:01:42.846Z,93442.47
2023-07-24T14:04:09.751Z,93434.72
2023-07-24T14:06:36.500Z,93434.81
2023-07-24T14:09:04.422Z,93439.16
2023-07-24T14:11:31.310Z,93443.56
2023-07-24T14:13:58.192Z,93461.91
2023-07-24T14:16:24.933Z,93484.22
2023-07-24T14:18:51.800Z,93471.63
2023-07-24T14:21:18.742Z,93467.09
2023-07-24T14:23:45.459Z,93439.28
2023-07-24T14:26:12.223Z,93425.03
2023-07-24T14:28:39.072Z,93418.44
2023-07-24T14:31:06.541Z,93413.75
2023-07-24T14:33:33.264Z,93407.06
2023-07-24T14:35:59.936Z,93400.00
2023-07-24T14:38:26.640Z,93392.63
2023-07-24T14:40:53.327Z,93405.06
2023-07-24T14:43:20.008Z,93414.84
2023-07-24T14:45:47.152Z,93422.28
2023-07-24T14:48:15.751Z,93418.03
2023-07-24T14:50:42.601Z,93416.06
2023-07-24T14:53:09.259Z,93426.97
2023-07-24T14:55:36.065Z,93434.84
2023-07-24T14:58:02.985Z,93439.59
2023-07-24T15:00:32.768Z,93436.59
2023-07-24T15:02:59.644Z,93414.53
2023-07-24T15:05:26.442Z,93414.56
2023-07-24T15:07:53.092Z,93395.59
2023-07-24T15:10:19.885Z,93401.00
2023-07-24T15:12:46.618Z,93404.50
2023-07-24T15:15:20.064Z,93416.13
2023-07-24T15:17:46.857Z,93420.78
2023-07-24T15:20:15.624Z,93413.41
2023-07-24T15:22:42.299Z,93402.19
2023-07-24T15:25:09.250Z,93396.72
2023-07-24T15:27:36.023Z,93391.25
2023-07-24T15:30:02.847Z,93395.03
2023-07-24T15:32:29.566Z,93397.66
2023-07-24T15:34:56.346Z,93399.94
2023-07-24T15:37:23.119Z,93383.66
2023-07-24T15:39:49.848Z,93401.16
2023-07-24T15:42:16.585Z,93391.13
2023-07-24T15:44:43.270Z,93394.16
2023-07-24T15:47:10.074Z,93400.72
2023-07-24T15:49:36.768Z,93380.16
2023-07-24T15:52:04.121Z,93396.13
2023-07-24T15:54:30.924Z,93396.91
2023-07-24T15:56:57.623Z,93401.56
2023-07-24T15:59:24.479Z,93389.47
2023-07-24T16:01:51.803Z,93397.91
2023-07-24T16:04:21.593Z,93408.34
2023-07-24T16:06:49.292Z,93410.97
2023-07-24T16:09:15.940Z,93420.59
2023-07-24T16:11:44.819Z,93419.03
2023-07-24T16:14:12.810Z,93426.06
2023-07-24T16:16:39.510Z,93416.31
2023-07-24T16:19:15.378Z,93423.25
2023-07-24T16:21:43.231Z,93419.41
2023-07-24T16:24:10.485Z,93410.63
2023-07-24T16:26:37.795Z,93406.00
2023-07-24T16:29:07.725Z,93397.88
2023-07-24T16:31:36.258Z,93411.84
2023-07-24T16:34:04.178Z,93402.50
2023-07-24T16:36:39.710Z,93399.75
2023-07-24T16:39:07.239Z,93399.38
2023-07-24T16:41:34.550Z,93395.50
2023-07-24T16:44:03.244Z,93393.13
2023-07-24T16:46:30.637Z,93387.66
2023-07-24T16:48:57.377Z,93380.28
2023-07-24T16:51:24.104Z,93383.00
2023-07-24T16:53:50.832Z,93377.97
2023-07-24T16:56:17.566Z,93369.13
2023-07-24T16:58:44.258Z,93366.03
2023-07-24T17:01:11.068Z,93360.16
2023-07-24T17:03:37.792Z,93357.06
2023-07-24T17:06:04.522Z,93346.25
2023-07-24T17:08:32.268Z,93341.28
2023-07-24T17:10:59.127Z,93345.91
2023-07-24T17:13:25.932Z,93335.09
2023-07-24T17:15:52.876Z,93336.19
2023-07-24T17:18:19.566Z,93339.38
2023-07-24T17:20:46.285Z,93348.28
2023-07-24T17:23:12.951Z,93346.75
2023-07-24T17:25:40.965Z,93332.03
2023-07-24T17:28:08.000Z,93332.81
2023-07-24T17:30:35.173Z,93354.56
2023-07-24T17:33:04.874Z,93359.97
2023-07-24T17:35:31.988Z,93361.19
2023-07-24T17:37:58.696Z,93368.16
2023-07-24T17:40:25.435Z,93373.59
2023-07-24T17:42:54.820Z,93366.22
2023-07-24T17:45:21.879Z,93359.66
2023-07-24T17:47:48.713Z,93362.00
2023-07-24T17:50:15.556Z,93357.78
2023-07-24T17:52:42.276Z,93349.28
2023-07-24T17:55:09.404Z,93353.94
2023-07-24T17:57:36.154Z,93351.59
2023-07-24T18:00:04.121Z,93351.22
2023-07-24T18:02:31.866Z,93361.69
2023-07-24T18:04:58.588Z,93361.69
2023-07-24T18:07:25.286Z,93364.78
2023-07-24T18:09:51.925Z,93365.56
2023-07-24T18:12:19.238Z,93357.03
2023-07-24T18:14:46.016Z,93360.94
2023-07-24T18:17:12.700Z,93365.59
2023-07-24T18:19:39.388Z,93364.09
2023-07-24T18:22:06.155Z,93370.72
2023-07-24T18:24:32.957Z,93380.38
2023-07-24T18:26:59.672Z,93378.88
2023-07-24T18:29:26.403Z,93374.25
2023-07-24T18:31:54.290Z,93368.84
2023-07-24T18:34:21.019Z,93362.66
2023-07-24T18:36:47.666Z,93374.63
2023-07-24T18:39:14.419Z,93371.56
2023-07-24T18:41:41.096Z,93389.00
2023-07-24T18:44:07.821Z,93392.50
2023-07-24T18:46:34.550Z,93408.38
2023-07-24T18:49:01.294Z,93432.81
2023-07-24T18:51:28.001Z,93433.25
2023-07-24T18:53:54.711Z,93447.69
2023-07-24T18:56:21.987Z,93450.44
2023-07-24T18:58:50.357Z,93443.50
2023-07-24T19:01:17.121Z,93455.50
2023-07-24T19:03:44.444Z,93454.72
2023-07-24T19:06:11.311Z,93455.09
2023-07-24T19:08:38.040Z,93448.94
2023-07-24T19:11:04.929Z,93454.72
2023-07-24T19:13:35.550Z,93444.28
2023-07-24T19:16:03.564Z,93443.91
2023-07-24T19:18:30.267Z,93454.38
2023-07-24T19:20:56.956Z,93445.47
2023-07-24T19:23:23.697Z,93453.19
2023-07-24T19:25:50.405Z,93453.59
2023-07-24T19:28:17.070Z,93444.69
2023-07-24T19:30:43.819Z,93449.34
2023-07-24T19:33:11.073Z,93460.19
2023-07-24T19:35:38.809Z,93461.34
2023-07-24T19:38:05.696Z,93459.41
2023-07-24T19:40:32.455Z,93452.81
2023-07-24T19:42:59.152Z,93448.19
2023-07-24T19:45:27.575Z,93462.94
2023-07-24T19:47:54.570Z,93481.09
2023-07-24T19:50:21.402Z,93484.59
2023-07-24T19:52:50.143Z,93477.25
2023-07-24T19:55:17.160Z,93477.25
2023-07-24T19:57:46.419Z,93476.88
2023-07-24T20:00:13.620Z,93474.53
2023-07-24T20:02:40.992Z,93462.94
2023-07-24T20:05:08.273Z,93465.69
2023-07-24T20:07:35.001Z,93466.84
2023-07-24T20:10:01.811Z,93474.56
2023-07-24T20:12:28.513Z,93476.88
2023-07-24T20:14:55.204Z,93486.94
2023-07-24T20:17:21.963Z,93499.31
2023-07-24T20:19:48.689Z,93503.19
2023-07-24T20:22:15.389Z,93486.16
2023-07-24T20:24:42.101Z,93501.63
2023-07-24T20:27:08.878Z,93491.94
2023-07-24T20:29:36.515Z,93489.63
2023-07-24T20:32:03.626Z,93481.50
2023-07-24T20:34:30.411Z,93487.31
2023-07-24T20:36:57.134Z,93494.69
2023-07-24T20:39:23.988Z,93502.81
2023-07-24T20:41:50.705Z,93507.44
2023-07-24T20:44:17.419Z,93498.53
2023-07-24T20:46:44.162Z,93508.97
2023-07-24T20:49:10.873Z,93501.59
2023-07-24T20:51:37.556Z,93514.00
2023-07-24T20:54:04.286Z,93531.03
2023-07-24T20:56:31.019Z,93519.03
2023-07-24T20:58:57.713Z,93522.50
2023-07-24T21:01:24.662Z,93518.63
2023-07-24T21:03:53.053Z,93519.00
2023-07-24T21:06:19.820Z,93526.38
2023-07-24T21:08:46.516Z,93527.16
2023-07-24T21:11:13.257Z,93522.50
2023-07-24T21:13:40.205Z,93519.41
2023-07-24T21:16:07.041Z,93526.38
2023-07-24T21:18:33.779Z,93527.91
2023-07-24T21:21:01.957Z,93524.44
2023-07-24T21:23:28.980Z,93528.69
2023-07-24T21:25:56.764Z,93522.50
2023-07-24T21:28:24.358Z,93529.47
2023-07-24T21:30:51.857Z,93534.88
2023-07-24T21:33:18.926Z,93527.88
2023-07-24T21:35:45.790Z,93535.25
2023-07-24T21:38:13.293Z,93537.94
2023-07-24T21:40:40.931Z,93549.16
2023-07-24T21:43:08.825Z,93537.94
2023-07-24T21:45:35.820Z,93547.22
2023-07-24T21:48:06.031Z,93542.97
2023-07-24T21:50:33.024Z,93545.66
2023-07-24T21:53:00.151Z,93544.91
2023-07-24T21:55:26.844Z,93540.25
2023-07-24T21:57:53.732Z,93542.19
2023-07-24T22:00:20.511Z,93543.34
2023-07-24T22:02:47.401Z,93540.22
2023-07-24T22:05:14.302Z,93536.75
2023-07-24T22:07:41.138Z,93525.53
2023-07-24T22:10:08.402Z,93522.47
2023-07-24T22:12:35.288Z,93530.59
2023-07-24T22:15:02.132Z,93528.66
2023-07-24T22:17:30.110Z,93520.50
2023-07-24T22:19:57.158Z,93512.38
2023-07-24T22:22:24.753Z,93518.16
2023-07-24T22:24:51.734Z,93516.22
2023-07-24T22:27:18.606Z,93523.97
2023-07-24T22:29:45.680Z,93519.72
2023-07-24T22:32:12.488Z,93524.75
2023-07-24T22:34:39.349Z,93515.06
2023-07-24T22:37:09.224Z,93511.19
2023-07-24T22:39:36.039Z,93503.09
2023-07-24T22:42:03.670Z,93514.69
2023-07-24T22:44:30.361Z,93514.63
2023-07-24T22:46:57.169Z,93515.75
2023-07-24T22:49:24.814Z,93504.13
2023-07-24T22:51:51.636Z,93506.84
2023-07-24T22:54:18.422Z,93503.75
2023-07-24T22:56:45.639Z,93502.94
2023-07-24T22:59:24.705Z,93504.13
2023-07-24T23:01:53.458Z,93498.34
2023-07-24T23:04:23.638Z,93499.09
2023-07-24T23:06:56.081Z,93494.88
2023-07-24T23:09:23.221Z,93492.16
2023-07-24T23:11:50.190Z,93485.94
2023-07-24T23:14:16.947Z,93496.34
2023-07-24T23:16:43.746Z,93488.25
2023-07-24T23:19:10.671Z,93477.41
2023-07-24T23:21:37.687Z,93475.44
2023-07-24T23:24:05.081Z,93473.53
2023-07-24T23:26:31.847Z,93469.66
2023-07-24T23:28:59.715Z,93460.38
2023-07-24T23:31:26.490Z,93465.81
2023-07-24T23:33:53.355Z,93463.88
2023-07-24T23:36:20.197Z,93457.31
2023-07-24T23:38:47.037Z,93452.66
2023-07-24T23:41:14.114Z,93461.16
2023-07-24T23:43:40.999Z,93458.06
2023-07-24T23:46:13.212Z,93459.63
2023-07-24T23:48:40.822Z,93470.81
2023-07-24T23:51:19.291Z,93465.38
2023-07-24T23:53:46.848Z,93461.13
2023-07-24T23:56:13.845Z,93447.97
2023-07-24T23:58:40.828Z,93452.66
